createdAt,value
2019-06-26T00:01:29.001Z,26.50
2019-06-26T00:04:00.928Z,26.40
2019-06-26T00:06:31.905Z,26.40
2019-06-26T00:09:02.878Z,26.30
2019-06-26T00:11:34.077Z,26.30
2019-06-26T00:14:04.843Z,26.30
2019-06-26T00:16:35.799Z,26.30
2019-06-26T00:19:06.692Z,26.20
2019-06-26T00:21:37.497Z,26.20
2019-06-26T00:24:08.373Z,26.20
2019-06-26T00:26:39.413Z,26.10
2019-06-26T00:29:10.252Z,26.10
2019-06-26T00:31:41.098Z,26.00
2019-06-26T00:34:11.958Z,26.00
2019-06-26T00:36:42.880Z,25.90
2019-06-26T00:39:13.733Z,25.90
2019-06-26T00:41:44.550Z,25.80
2019-06-26T00:44:15.387Z,25.90
2019-06-26T00:46:46.341Z,25.80
2019-06-26T00:49:17.060Z,25.70
2019-06-26T00:51:47.781Z,25.70
2019-06-26T00:54:18.386Z,25.60
2019-06-26T00:56:49.706Z,25.60
2019-06-26T00:59:20.568Z,25.60
2019-06-26T01:02:09.041Z,25.60
2019-06-26T01:04:42.292Z,25.50
2019-06-26T01:07:13.098Z,25.50
2019-06-26T01:09:43.858Z,25.50
2019-06-26T01:12:14.624Z,25.50
2019-06-26T01:14:45.253Z,25.50
2019-06-26T01:17:16.642Z,25.50
2019-06-26T01:19:47.484Z,25.50
2019-06-26T01:22:18.090Z,25.40
2019-06-26T01:24:48.714Z,25.40
2019-06-26T01:27:19.455Z,25.40
2019-06-26T01:29:50.245Z,25.30
2019-06-26T01:32:21.480Z,25.30
2019-06-26T01:34:52.200Z,25.30
2019-06-26T01:37:22.990Z,25.20
2019-06-26T01:39:53.687Z,25.20
2019-06-26T01:42:24.541Z,25.10
2019-06-26T01:44:55.300Z,25.10
2019-06-26T01:47:27.291Z,25.00
2019-06-26T01:49:58.158Z,25.00
2019-06-26T01:52:28.978Z,25.00
2019-06-26T01:54:59.800Z,24.90
2019-06-26T01:57:30.508Z,24.80
2019-06-26T02:00:01.310Z,24.70
2019-06-26T02:02:32.197Z,24.70
2019-06-26T02:05:02.838Z,24.70
2019-06-26T02:07:33.745Z,24.60
2019-06-26T02:10:05.147Z,24.60
2019-06-26T02:12:35.848Z,24.60
2019-06-26T02:15:07.048Z,24.60
2019-06-26T02:17:38.032Z,24.60
2019-06-26T02:20:09.976Z,24.50
2019-06-26T02:22:40.764Z,24.50
2019-06-26T02:25:11.652Z,24.50
2019-06-26T02:27:42.407Z,24.50
2019-06-26T02:30:13.340Z,24.40
2019-06-26T02:32:44.048Z,24.40
2019-06-26T02:35:14.898Z,24.30
2019-06-26T02:37:45.550Z,24.30
2019-06-26T02:40:16.872Z,24.20
2019-06-26T02:42:47.706Z,24.20
2019-06-26T02:45:18.869Z,24.20
2019-06-26T02:47:50.561Z,24.10
2019-06-26T02:50:21.566Z,24.10
2019-06-26T02:52:52.527Z,24.00
2019-06-26T02:55:23.391Z,24.00
2019-06-26T02:57:55.311Z,24.00
2019-06-26T03:00:25.910Z,23.90
2019-06-26T03:02:56.660Z,23.90
2019-06-26T03:05:27.509Z,23.90
2019-06-26T03:07:58.335Z,23.90
2019-06-26T03:10:28.936Z,23.80
2019-06-26T03:12:59.612Z,23.80
2019-06-26T03:15:30.385Z,23.80
2019-06-26T03:18:01.003Z,23.70
2019-06-26T03:20:34.880Z,23.70
2019-06-26T03:23:05.713Z,23.60
2019-06-26T03:25:36.567Z,23.60
2019-06-26T03:28:07.409Z,23.60
2019-06-26T03:30:38.137Z,23.60
2019-06-26T03:33:08.968Z,23.50
2019-06-26T03:35:40.841Z,23.50
2019-06-26T03:38:11.833Z,23.50
2019-06-26T03:40:42.455Z,23.50
2019-06-26T03:43:13.242Z,23.40
2019-06-26T03:45:44.051Z,23.40
2019-06-26T03:48:15.103Z,23.40
2019-06-26T03:50:45.949Z,23.40
2019-06-26T03:53:16.795Z,23.40
2019-06-26T03:55:47.588Z,23.40
2019-06-26T03:58:18.395Z,23.40
2019-06-26T04:00:49.253Z,23.30
2019-06-26T04:03:19.987Z,23.30
2019-06-26T04:05:51.721Z,23.30
2019-06-26T04:08:22.339Z,23.30
2019-06-26T04:10:53.047Z,23.20
2019-06-26T04:13:23.946Z,23.30
2019-06-26T04:15:54.505Z,23.20
2019-06-26T04:18:25.218Z,23.20
2019-06-26T04:20:55.991Z,23.20
2019-06-26T04:23:27.410Z,23.10
2019-06-26T04:25:58.391Z,23.10
2019-06-26T04:28:29.111Z,23.10
2019-06-26T04:30:59.974Z,23.10
2019-06-26T04:33:30.844Z,23.10
2019-06-26T04:36:02.686Z,23.10
2019-06-26T04:38:33.254Z,23.10
2019-06-26T04:41:04.015Z,23.10
2019-06-26T04:43:34.782Z,23.10
2019-06-26T04:46:05.554Z,23.10
2019-06-26T04:48:36.766Z,23.10
2019-06-26T04:51:07.519Z,23.00
2019-06-26T04:53:39.311Z,23.10
2019-06-26T04:56:10.186Z,23.00
2019-06-26T04:58:40.941Z,23.00
2019-06-26T05:01:11.769Z,23.10
2019-06-26T05:03:42.568Z,23.00
2019-06-26T05:06:13.283Z,23.00
2019-06-26T05:08:44.191Z,23.00
2019-06-26T05:11:14.939Z,23.00
2019-06-26T05:13:45.783Z,23.00
2019-06-26T05:16:20.111Z,23.00
2019-06-26T05:18:48.859Z,23.00
2019-06-26T05:21:19.544Z,23.00
2019-06-26T05:23:50.327Z,23.10
2019-06-26T05:26:21.250Z,23.10
2019-06-26T05:28:51.898Z,23.10
2019-06-26T05:31:22.594Z,23.20
2019-06-26T05:33:53.379Z,23.20
2019-06-26T05:36:25.455Z,23.10
2019-06-26T05:38:56.419Z,23.10
2019-06-26T05:41:28.874Z,23.20
2019-06-26T05:43:59.747Z,23.20
2019-06-26T05:46:31.698Z,23.20
2019-06-26T05:49:02.851Z,23.20
2019-06-26T05:51:33.491Z,23.30
2019-06-26T05:54:04.197Z,23.30
2019-06-26T05:56:35.063Z,23.40
2019-06-26T05:59:05.841Z,23.40
2019-06-26T06:01:36.711Z,23.50
2019-06-26T06:04:08.711Z,23.50
2019-06-26T06:06:42.014Z,23.60
2019-06-26T06:09:11.721Z,23.50
2019-06-26T06:11:43.940Z,23.60
2019-06-26T06:14:14.876Z,23.60
2019-06-26T06:16:47.726Z,23.60
2019-06-26T06:19:18.228Z,23.60
2019-06-26T06:21:48.923Z,23.60
2019-06-26T06:24:19.659Z,23.60
2019-06-26T06:26:50.396Z,23.60
2019-06-26T06:29:21.242Z,23.60
2019-06-26T06:31:52.071Z,23.70
2019-06-26T06:34:22.849Z,23.80
2019-06-26T06:36:53.666Z,23.90
2019-06-26T06:39:24.469Z,23.90
2019-06-26T06:41:55.467Z,23.90
2019-06-26T06:44:26.375Z,24.00
2019-06-26T06:47:04.044Z,24.00
2019-06-26T06:49:31.569Z,24.00
2019-06-26T06:52:02.188Z,24.00
2019-06-26T06:54:33.095Z,24.10
2019-06-26T06:57:07.780Z,24.10
2019-06-26T06:59:38.484Z,24.20
2019-06-26T07:02:09.275Z,24.20
2019-06-26T07:04:39.989Z,24.30
2019-06-26T07:07:10.728Z,24.30
2019-06-26T07:09:41.451Z,24.30
2019-06-26T07:12:12.136Z,24.40
2019-06-26T07:14:42.907Z,24.40
2019-06-26T07:17:20.804Z,24.50
2019-06-26T07:19:46.218Z,24.50
2019-06-26T07:22:16.860Z,24.50
2019-06-26T07:24:47.615Z,24.60
2019-06-26T07:27:18.309Z,24.60
2019-06-26T07:29:49.027Z,24.60
2019-06-26T07:32:19.721Z,24.70
2019-06-26T07:34:50.596Z,24.70
2019-06-26T07:37:21.283Z,24.80
2019-06-26T07:39:52.156Z,24.80
2019-06-26T07:42:22.791Z,24.90
2019-06-26T07:44:53.407Z,24.90
2019-06-26T07:47:41.554Z,25.00
2019-06-26T07:49:56.860Z,25.10
2019-06-26T07:52:27.673Z,25.10
2019-06-26T07:54:58.322Z,25.00
2019-06-26T07:57:28.944Z,25.10
2019-06-26T07:59:59.798Z,25.20
2019-06-26T08:02:30.836Z,25.30
2019-06-26T08:05:01.592Z,25.30
2019-06-26T08:07:32.366Z,25.40
2019-06-26T08:10:03.106Z,25.50
2019-06-26T08:12:34.485Z,25.60
2019-06-26T08:15:05.504Z,25.60
2019-06-26T08:17:36.375Z,25.70
2019-06-26T08:20:07.122Z,25.70
2019-06-26T08:22:37.923Z,25.90
2019-06-26T08:25:09.012Z,26.00
2019-06-26T08:27:39.904Z,26.10
2019-06-26T08:30:10.960Z,26.20
2019-06-26T08:32:41.729Z,26.20
2019-06-26T08:35:12.430Z,26.20
2019-06-26T08:37:43.357Z,26.30
2019-06-26T08:40:15.722Z,26.50
2019-06-26T08:42:46.507Z,26.50
2019-06-26T08:45:17.421Z,26.50
2019-06-26T08:47:48.184Z,26.50
2019-06-26T08:50:19.726Z,26.40
2019-06-26T08:52:50.470Z,26.50
2019-06-26T08:55:21.033Z,26.60
2019-06-26T08:57:51.783Z,26.80
2019-06-26T09:00:22.662Z,26.90
2019-06-26T09:02:53.473Z,27.10
2019-06-26T09:05:24.165Z,27.20
2019-06-26T09:07:55.081Z,27.20
2019-06-26T09:10:25.715Z,27.20
2019-06-26T09:13:08.711Z,27.00
2019-06-26T09:15:39.441Z,27.00
2019-06-26T09:18:10.095Z,27.00
2019-06-26T09:20:41.254Z,27.20
2019-06-26T09:23:11.813Z,27.30
2019-06-26T09:25:42.418Z,27.30
2019-06-26T09:28:13.007Z,27.30
2019-06-26T09:30:43.564Z,27.60
2019-06-26T09:33:14.259Z,27.50
2019-06-26T09:35:45.528Z,27.50
2019-06-26T09:38:16.266Z,27.60
2019-06-26T09:40:46.916Z,27.60
2019-06-26T09:43:17.971Z,27.40
2019-06-26T09:45:48.781Z,27.30
2019-06-26T09:48:19.484Z,27.60
2019-06-26T09:50:52.287Z,27.80
2019-06-26T09:53:22.991Z,27.90
2019-06-26T09:55:53.779Z,28.10
2019-06-26T09:58:26.240Z,28.10
2019-06-26T10:00:57.101Z,28.10
2019-06-26T10:03:27.915Z,28.10
2019-06-26T10:05:58.670Z,28.30
2019-06-26T10:08:29.459Z,28.50
2019-06-26T10:11:00.083Z,28.70
2019-06-26T10:13:30.826Z,28.90
2019-06-26T10:16:03.500Z,28.90
2019-06-26T10:18:34.301Z,28.90
2019-06-26T10:21:04.968Z,29.30
2019-06-26T10:23:35.603Z,29.20
2019-06-26T10:26:06.435Z,29.10
2019-06-26T10:28:37.113Z,28.80
2019-06-26T10:31:07.962Z,28.90
2019-06-26T10:33:38.986Z,29.00
2019-06-26T10:36:10.080Z,29.30
2019-06-26T10:38:40.793Z,29.60
2019-06-26T10:41:11.577Z,29.30
2019-06-26T10:43:42.411Z,29.50
2019-06-26T10:46:13.111Z,29.70
2019-06-26T10:48:43.970Z,29.50
2019-06-26T10:51:15.480Z,29.40
2019-06-26T10:53:46.323Z,29.30
2019-06-26T10:56:17.054Z,29.50
2019-06-26T10:58:48.295Z,29.80
2019-06-26T11:01:19.304Z,30.10
2019-06-26T11:03:53.087Z,30.30
2019-06-26T11:06:23.979Z,30.80
2019-06-26T11:08:54.855Z,31.00
2019-06-26T11:11:25.878Z,31.20
2019-06-26T11:13:56.666Z,31.50
2019-06-26T11:16:27.584Z,31.70
2019-06-26T11:18:58.322Z,32.00
2019-06-26T11:21:29.082Z,32.30
2019-06-26T11:23:59.842Z,32.10
2019-06-26T11:26:30.784Z,31.80
2019-06-26T11:29:01.483Z,32.00
2019-06-26T11:31:32.262Z,32.00
2019-06-26T11:34:03.067Z,31.50
2019-06-26T11:36:35.210Z,31.70
2019-06-26T11:39:08.215Z,31.90
2019-06-26T11:41:39.172Z,32.10
2019-06-26T11:44:09.936Z,32.00
2019-06-26T11:46:40.879Z,32.00
2019-06-26T11:49:12.726Z,31.90
2019-06-26T11:51:43.742Z,32.20
2019-06-26T11:54:14.400Z,32.40
2019-06-26T11:56:45.252Z,32.20
2019-06-26T11:59:16.354Z,31.80
2019-06-26T12:01:47.347Z,31.80
2019-06-26T12:04:18.075Z,31.90
2019-06-26T12:06:50.257Z,31.70
2019-06-26T12:09:21.084Z,31.40
2019-06-26T12:11:51.934Z,31.00
2019-06-26T12:14:22.805Z,31.00
2019-06-26T12:16:53.619Z,31.50
2019-06-26T12:19:24.422Z,31.60
2019-06-26T12:21:55.183Z,31.70
2019-06-26T12:24:26.680Z,31.70
2019-06-26T12:26:57.631Z,31.20
2019-06-26T12:29:28.464Z,31.20
2019-06-26T12:31:59.171Z,31.40
2019-06-26T12:34:30.000Z,31.70
2019-06-26T12:37:01.058Z,32.20
2019-06-26T12:39:31.693Z,32.70
2019-06-26T12:42:02.457Z,33.10
2019-06-26T12:44:33.438Z,33.30
2019-06-26T12:47:04.415Z,33.60
2019-06-26T12:49:35.284Z,33.40
2019-06-26T12:52:05.972Z,33.20
2019-06-26T12:54:36.813Z,33.50
2019-06-26T12:57:07.772Z,33.60
2019-06-26T12:59:55.882Z,33.30
2019-06-26T13:02:12.520Z,33.00
2019-06-26T13:04:44.910Z,32.80
2019-06-26T13:07:16.348Z,33.00
2019-06-26T13:09:47.112Z,32.80
2019-06-26T13:12:17.913Z,32.80
2019-06-26T13:14:48.634Z,32.70
2019-06-26T13:17:19.289Z,33.10
2019-06-26T13:19:49.860Z,33.30
2019-06-26T13:22:20.694Z,33.40
2019-06-26T13:24:51.434Z,33.80
2019-06-26T13:27:22.421Z,34.10
2019-06-26T13:29:53.060Z,34.40
2019-06-26T13:32:24.026Z,34.40
2019-06-26T13:34:55.091Z,34.50
2019-06-26T13:37:25.856Z,34.50
2019-06-26T13:39:56.643Z,34.80
2019-06-26T13:42:28.500Z,35.00
2019-06-26T13:44:59.477Z,35.30
2019-06-26T13:47:30.266Z,35.50
2019-06-26T13:50:00.915Z,35.80
2019-06-26T13:52:32.690Z,35.80
2019-06-26T13:55:03.667Z,35.80
2019-06-26T13:57:34.474Z,35.60
2019-06-26T14:00:08.007Z,35.70
2019-06-26T14:02:38.972Z,35.20
2019-06-26T14:05:10.314Z,35.10
2019-06-26T14:07:42.267Z,35.00
2019-06-26T14:10:13.190Z,35.00
2019-06-26T14:12:44.223Z,35.20
2019-06-26T14:15:15.810Z,35.30
2019-06-26T14:17:46.673Z,35.30
2019-06-26T14:20:17.687Z,35.30
2019-06-26T14:22:48.362Z,35.20
2019-06-26T14:25:19.086Z,35.20
2019-06-26T14:27:49.917Z,35.20
2019-06-26T14:30:21.145Z,35.00
2019-06-26T14:32:53.015Z,35.30
2019-06-26T14:35:23.869Z,35.60
2019-06-26T14:37:54.513Z,35.60
2019-06-26T14:40:26.487Z,35.50
2019-06-26T14:42:57.268Z,35.10
2019-06-26T14:45:28.105Z,35.30
2019-06-26T14:47:59.114Z,35.50
2019-06-26T14:50:29.887Z,35.40
2019-06-26T14:53:03.545Z,35.10
2019-06-26T14:55:34.328Z,34.80
2019-06-26T14:58:05.121Z,34.90
2019-06-26T15:00:36.809Z,34.80
2019-06-26T15:03:07.565Z,34.90
2019-06-26T15:05:38.402Z,34.90
2019-06-26T15:08:09.411Z,35.10
2019-06-26T15:10:40.118Z,35.30
2019-06-26T15:13:11.800Z,35.30
2019-06-26T15:15:42.501Z,35.30
2019-06-26T15:18:13.330Z,35.40
2019-06-26T15:20:46.003Z,35.40
2019-06-26T15:23:16.646Z,35.20
2019-06-26T15:25:49.112Z,35.00
2019-06-26T15:28:19.797Z,34.90
2019-06-26T15:30:49.489Z,34.80
2019-06-26T15:33:20.212Z,34.40
2019-06-26T15:35:51.070Z,33.90
2019-06-26T15:38:21.786Z,33.60
2019-06-26T15:40:52.644Z,33.40
2019-06-26T15:43:23.445Z,33.60
2019-06-26T15:45:54.071Z,33.70
2019-06-26T15:48:24.919Z,33.60
2019-06-26T15:50:56.028Z,33.50
2019-06-26T15:53:28.107Z,33.60
2019-06-26T15:55:59.006Z,33.40
2019-06-26T15:58:30.009Z,33.10
2019-06-26T16:01:00.962Z,33.20
2019-06-26T16:03:31.703Z,33.00
2019-06-26T16:06:02.604Z,32.80
2019-06-26T16:08:33.378Z,32.60
2019-06-26T16:11:04.201Z,32.30
2019-06-26T16:13:34.913Z,32.20
2019-06-26T16:16:06.677Z,32.00
2019-06-26T16:18:51.421Z,31.90
2019-06-26T16:21:22.247Z,31.80
2019-06-26T16:23:53.014Z,31.80
2019-06-26T16:26:24.912Z,31.70
2019-06-26T16:28:55.758Z,31.60
2019-06-26T16:31:26.651Z,31.60
2019-06-26T16:33:57.318Z,31.50
2019-06-26T16:36:28.103Z,31.20
2019-06-26T16:38:58.721Z,31.10
2019-06-26T16:41:29.646Z,31.00
2019-06-26T16:44:00.670Z,30.90
2019-06-26T16:46:33.300Z,30.90
2019-06-26T16:49:04.084Z,30.80
2019-06-26T16:51:34.990Z,30.70
2019-06-26T16:54:06.251Z,30.70
2019-06-26T16:56:36.925Z,30.60
2019-06-26T16:59:07.695Z,30.30
2019-06-26T17:01:39.187Z,30.20
2019-06-26T17:04:09.815Z,30.00
2019-06-26T17:06:40.494Z,29.90
2019-06-26T17:09:11.154Z,29.80
2019-06-26T17:11:42.039Z,29.70
2019-06-26T17:14:12.820Z,29.50
2019-06-26T17:16:43.804Z,29.40
2019-06-26T17:19:14.496Z,29.30
2019-06-26T17:21:45.632Z,29.20
2019-06-26T17:24:17.359Z,29.10
2019-06-26T17:26:48.299Z,29.00
2019-06-26T17:29:18.996Z,29.00
2019-06-26T17:31:49.749Z,29.00
2019-06-26T17:34:21.692Z,28.80
2019-06-26T17:36:52.341Z,28.60
2019-06-26T17:39:23.359Z,28.50
2019-06-26T17:41:54.082Z,28.30
2019-06-26T17:44:24.918Z,28.30
2019-06-26T17:46:55.757Z,28.20
2019-06-26T17:49:26.371Z,28.10
2019-06-26T17:51:57.167Z,28.00
2019-06-26T17:54:28.456Z,27.90
2019-06-26T17:56:59.093Z,27.80
2019-06-26T17:59:29.973Z,27.70
2019-06-26T18:02:01.032Z,27.50
2019-06-26T18:04:31.824Z,27.40
2019-06-26T18:07:02.500Z,27.30
2019-06-26T18:09:33.318Z,27.20
2019-06-26T18:12:04.137Z,27.20
2019-06-26T18:14:34.972Z,27.30
2019-06-26T18:17:21.130Z,27.40
2019-06-26T18:19:38.368Z,27.50
2019-06-26T18:22:09.164Z,27.60
2019-06-26T18:24:39.887Z,27.60
2019-06-26T18:27:10.524Z,27.60
2019-06-26T18:29:41.307Z,27.70
2019-06-26T18:32:12.184Z,27.80
2019-06-26T18:34:43.020Z,27.90
2019-06-26T18:37:13.649Z,27.80
2019-06-26T18:39:44.492Z,27.50
2019-06-26T18:42:15.204Z,27.30
2019-06-26T18:44:47.153Z,27.00
2019-06-26T18:47:19.037Z,26.70
2019-06-26T18:49:51.574Z,26.60
2019-06-26T18:52:22.289Z,26.40
2019-06-26T18:54:54.393Z,26.20
2019-06-26T18:57:25.261Z,26.10
2019-06-26T18:59:56.102Z,26.00
2019-06-26T19:02:27.159Z,25.80
2019-06-26T19:04:58.043Z,25.70
2019-06-26T19:07:28.918Z,25.60
2019-06-26T19:09:59.763Z,25.50
2019-06-26T19:12:30.596Z,25.40
2019-06-26T19:15:01.605Z,25.30
2019-06-26T19:17:32.446Z,25.30
2019-06-26T19:20:03.531Z,25.20
2019-06-26T19:22:34.728Z,25.10
2019-06-26T19:25:06.089Z,25.10
2019-06-26T19:27:36.742Z,25.10
2019-06-26T19:30:09.361Z,25.00
2019-06-26T19:32:40.193Z,24.90
2019-06-26T19:35:19.254Z,24.80
2019-06-26T19:37:43.506Z,24.80
2019-06-26T19:40:14.826Z,24.70
2019-06-26T19:42:45.534Z,24.60
2019-06-26T19:45:16.797Z,24.50
2019-06-26T19:47:47.588Z,24.40
2019-06-26T19:50:18.653Z,24.30
2019-06-26T19:52:49.622Z,24.30
2019-06-26T19:55:21.762Z,24.20
2019-06-26T19:57:52.647Z,24.20
2019-06-26T20:00:23.448Z,24.00
2019-06-26T20:02:54.306Z,24.00
2019-06-26T20:05:25.162Z,23.90
2019-06-26T20:07:56.008Z,23.80
2019-06-26T20:10:27.847Z,23.60
2019-06-26T20:12:58.785Z,23.60
2019-06-26T20:15:29.995Z,23.50
2019-06-26T20:18:04.135Z,23.50
2019-06-26T20:20:33.301Z,23.40
2019-06-26T20:23:05.271Z,23.40
2019-06-26T20:25:36.067Z,23.40
2019-06-26T20:28:06.638Z,23.40
2019-06-26T20:30:37.266Z,23.30
2019-06-26T20:33:08.602Z,23.30
2019-06-26T20:35:39.557Z,23.20
2019-06-26T20:38:10.332Z,23.20
2019-06-26T20:40:41.016Z,23.20
2019-06-26T20:43:11.974Z,23.10
2019-06-26T20:45:43.052Z,23.00
2019-06-26T20:48:13.770Z,22.90
2019-06-26T20:50:44.572Z,22.90
2019-06-26T20:53:15.306Z,22.70
2019-06-26T20:55:46.512Z,22.60
2019-06-26T20:58:17.472Z,22.50
2019-06-26T21:00:48.684Z,22.40
2019-06-26T21:03:21.311Z,22.30
2019-06-26T21:05:52.993Z,22.30
2019-06-26T21:08:23.683Z,22.20
2019-06-26T21:10:54.577Z,22.10
2019-06-26T21:13:25.478Z,22.00
2019-06-26T21:15:57.197Z,21.90
2019-06-26T21:18:28.073Z,21.90
2019-06-26T21:20:58.786Z,21.80
2019-06-26T21:23:29.597Z,21.80
2019-06-26T21:26:00.404Z,21.70
2019-06-26T21:28:32.136Z,21.70
2019-06-26T21:31:03.889Z,21.60
2019-06-26T21:33:34.571Z,21.50
2019-06-26T21:36:07.356Z,21.40
2019-06-26T21:38:38.156Z,21.40
2019-06-26T21:41:09.010Z,21.30
2019-06-26T21:43:41.066Z,21.10
2019-06-26T21:46:11.940Z,21.10
2019-06-26T21:48:42.918Z,21.10
2019-06-26T21:51:13.672Z,21.10
2019-06-26T21:53:44.670Z,21.00
2019-06-26T21:56:34.228Z,21.00
2019-06-26T21:59:23.279Z,20.90
2019-06-26T22:02:12.015Z,20.80
2019-06-26T22:04:56.599Z,20.70
2019-06-26T22:07:29.197Z,20.70
2019-06-26T22:10:08.165Z,20.70
2019-06-26T22:12:40.384Z,20.60
2019-06-26T22:15:11.784Z,20.50
2019-06-26T22:17:42.575Z,20.40
2019-06-26T22:20:15.005Z,20.50
2019-06-26T22:22:45.766Z,20.30
2019-06-26T22:25:17.273Z,20.20
2019-06-26T22:27:48.246Z,20.10
2019-06-26T22:30:19.187Z,20.00
2019-06-26T22:32:49.989Z,19.80
2019-06-26T22:35:21.085Z,19.80
2019-06-26T22:37:51.862Z,19.80
2019-06-26T22:40:22.668Z,19.70
2019-06-26T22:42:53.439Z,19.70
2019-06-26T22:45:26.446Z,19.70
2019-06-26T22:47:57.270Z,19.70
2019-06-26T22:50:28.161Z,19.70
2019-06-26T22:52:59.920Z,19.70
2019-06-26T22:55:30.723Z,19.60
2019-06-26T22:58:01.710Z,19.60
2019-06-26T23:00:32.613Z,19.40
2019-06-26T23:03:03.655Z,19.40
2019-06-26T23:05:34.457Z,19.30
2019-06-26T23:08:05.174Z,19.30
2019-06-26T23:10:35.875Z,19.10
2019-06-26T23:13:09.653Z,19.10
2019-06-26T23:15:39.463Z,19.10
2019-06-26T23:18:10.135Z,19.10
2019-06-26T23:20:41.483Z,19.10
2019-06-26T23:23:12.263Z,19.00
2019-06-26T23:25:43.178Z,19.00
2019-06-26T23:28:14.067Z,18.90
2019-06-26T23:30:46.025Z,18.80
2019-06-26T23:33:16.792Z,18.80
2019-06-26T23:35:47.442Z,18.80
2019-06-26T23:38:18.192Z,18.70
2019-06-26T23:40:48.876Z,18.60
2019-06-26T23:43:19.516Z,18.60
2019-06-26T23:45:50.215Z,18.60
2019-06-26T23:48:21.010Z,18.50
2019-06-26T23:50:51.776Z,18.40
2019-06-26T23:53:22.584Z,18.30
2019-06-26T23:55:53.331Z,18.20
2019-06-26T23:58:24.373Z,18.20
